Portada
METAR-TAF:

METAR-TAF

Aeropuertos :

Agen, Francia

latitud: 44-11N, longitud: 000-36E, altitud: 61 m

Observación

El informe se hizo hace 17 minutos, a las 20:30 UTC
Viento 1 kt del sur
Temperatura 18°C
Humedad 77%
Presión 1019 hPa
Visibilidad 10 km o más
sin nubes por debajo de 1500 m y sin presencia de cumulonimbus.

METAR: LFBA 142030Z AUTO 17001KT CAVOK 18/14 Q1019

Hora: 22:47 (20:47 UTC)

Pronóstico

El informe se hizo hace 6 horas y 47 minutos, a las 14:00 UTC
Pronóstico válido del 14 a las 15 UTC al 14 a las 24 UTC
Viento 3 kt con dirección variable
Visibilidad 10 km o más
sin nubes por debajo de 1500 m y sin presencia de cumulonimbus.
Evolucionando progresivamente
del 14 a las 20 UTC al 14 a las 22 UTC
Viento 10 kt del oeste-noroeste

TAF: LFBA 141400Z 1415/1424 VRB03KT CAVOK BECMG 1420/1422 29010KT

Observaciones y pronósticos meteorológicos de más de 4000 aeropuertos (mensajes METAR y TAF).

Los puntos amarillos y rojos representan las estaciones disponibles.

Ponga el ratón en el punto deseado para ver el nombre de la estación.

Haga clic para ver las observaciones y los pronósticos meteorológicos.

Para cambiar el mapa : haga clic en los botones verdes con una cruz de color negro para hacer un zoom, en el botón verde con un guión para alejar o en las flechas verdes para mapas adyacentes.


METAR-TAF: